地図

経路データ

SID SEASON NUMBER BASIN SUBBASIN NAME ISO_TIME NATURE LAT LON WMO_WIND WMO_PRES WMO_AGENCY TRACK_TYPE DIST2LAND LANDFALL IFLAG USA_AGENCY USA_ATCF_ID USA_LAT USA_LON USA_RECORD USA_STATUS USA_WIND USA_PRES USA_SSHS USA_R34_NE USA_R34_SE USA_R34_SW USA_R34_NW USA_R50_NE USA_R50_SE USA_R50_SW USA_R50_NW USA_R64_NE USA_R64_SE USA_R64_SW USA_R64_NW USA_POCI USA_ROCI USA_RMW USA_EYE TOKYO_LAT TOKYO_LON TOKYO_GRADE TOKYO_WIND TOKYO_PRES TOKYO_R50_DIR TOKYO_R50_LONG TOKYO_R50_SHORT TOKYO_R30_DIR TOKYO_R30_LONG TOKYO_R30_SHORT TOKYO_LAND CMA_LAT CMA_LON CMA_CAT CMA_WIND CMA_PRES HKO_LAT HKO_LON HKO_CAT HKO_WIND HKO_PRES NEWDELHI_LAT NEWDELHI_LON NEWDELHI_GRADE NEWDELHI_WIND NEWDELHI_PRES NEWDELHI_CI NEWDELHI_DP NEWDELHI_POCI REUNION_LAT REUNION_LON REUNION_TYPE REUNION_WIND REUNION_PRES REUNION_TNUM REUNION_CI REUNION_RMW REUNION_R34_NE REUNION_R34_SE REUNION_R34_SW REUNION_R34_NW REUNION_R50_NE REUNION_R50_SE REUNION_R50_SW REUNION_R50_NW REUNION_R64_NE REUNION_R64_SE REUNION_R64_SW REUNION_R64_NW BOM_LAT BOM_LON BOM_TYPE BOM_WIND BOM_PRES BOM_TNUM BOM_CI BOM_RMW BOM_R34_NE BOM_R34_SE BOM_R34_SW BOM_R34_NW BOM_R50_NE BOM_R50_SE BOM_R50_SW BOM_R50_NW BOM_R64_NE BOM_R64_SE BOM_R64_SW BOM_R64_NW BOM_ROCI BOM_POCI BOM_EYE BOM_POS_METHOD BOM_PRES_METHOD NADI_LAT NADI_LON NADI_CAT NADI_WIND NADI_PRES WELLINGTON_LAT WELLINGTON_LON WELLINGTON_WIND WELLINGTON_PRES DS824_LAT DS824_LON DS824_STAGE DS824_WIND DS824_PRES TD9636_LAT TD9636_LON TD9636_STAGE TD9636_WIND TD9636_PRES TD9635_LAT TD9635_LON TD9635_WIND TD9635_PRES TD9635_ROCI NEUMANN_LAT NEUMANN_LON NEUMANN_CLASS NEUMANN_WIND NEUMANN_PRES MLC_LAT MLC_LON MLC_CLASS MLC_WIND MLC_PRES USA_GUST BOM_GUST BOM_GUST_PER REUNION_GUST REUNION_GUST_PER USA_SEAHGT USA_SEARAD_NE USA_SEARAD_SE USA_SEARAD_SW USA_SEARAD_NW STORM_SPEED STORM_DIR
1894011S14056 1894 3 SI MM NOT_NAMED 1894-01-11 06:00:00 NR -14.0000 56.0000 main 607 602 __________O___ -1 -14.0000 56.0000 7 5 178
1894011S14056 1894 3 SI MM NOT_NAMED 1894-01-11 09:00:00 NR -14.2563 56.0046 main 600 596 __________P___ -1 -14.2563 56.0046 7 5 178
1894011S14056 1894 3 SI MM NOT_NAMED 1894-01-11 12:00:00 NR -14.5000 56.0074 main 596 593 __________P___ -1 -14.5000 56.0074 7 5 177
1894011S14056 1894 3 SI MM NOT_NAMED 1894-01-11 15:00:00 NR -14.7188 56.0065 main 593 591 __________P___ -1 -14.7188 56.0065 7 4 0
1894011S14056 1894 3 SI MM NOT_NAMED 1894-01-11 18:00:00 NR -14.9000 56.0000 main 591 591 __________O___ -1 -14.9000 56.0000 7 3 182
1894011S14056 1894 3 SI MM NOT_NAMED 1894-01-11 21:00:00 NR -15.0375 55.9879 main 591 581 __________P___ -1 -15.0375 55.9879 7 3 183
1894011S14056 1894 3 SI MM NOT_NAMED 1894-01-12 00:00:00 NR -15.1500 55.9776 main 581 560 __________P___ -1 -15.1500 55.9776 7 2 0
1894011S14056 1894 3 SI MM NOT_NAMED 1894-01-12 03:00:00 NR -15.2625 55.9785 main 560 549 __________P___ -1 -15.2625 55.9785 7 3 178
1894011S14056 1894 3 SI MM NOT_NAMED 1894-01-12 06:00:00 NR -15.4000 56.0000 main 549 527 __________O___ -1 -15.4000 56.0000 7 4 170
1894011S14056 1894 3 SI MM NOT_NAMED 1894-01-12 09:00:00 NR -15.6085 56.0533 main 524 503 __________P___ -1 -15.6085 56.0533 7 5 164
1894011S14056 1894 3 SI MM NOT_NAMED 1894-01-12 12:00:00 NR -15.8425 56.1273 main 503 468 __________P___ -1 -15.8425 56.1273 7 5 162
1894011S14056 1894 3 SI MM NOT_NAMED 1894-01-12 15:00:00 NR -16.0803 56.2127 main 468 443 __________P___ -1 -16.0803 56.2127 7 5 160
1894011S14056 1894 3 SI MM NOT_NAMED 1894-01-12 18:00:00 NR -16.3000 56.3000 main 443 429 __________O___ -1 -16.3000 56.3000 7 4 158
1894011S14056 1894 3 SI MM NOT_NAMED 1894-01-12 21:00:00 NR -16.4512 56.3671 main 419 408 __________P___ -1 -16.4512 56.3671 7 3 155
1894011S14056 1894 3 SI MM NOT_NAMED 1894-01-13 00:00:00 NR -16.5849 56.4353 main 408 394 __________P___ -1 -16.5849 56.4353 7 3 154
1894011S14056 1894 3 SI MM NOT_NAMED 1894-01-13 03:00:00 NR -16.7262 56.5109 main 394 370 __________P___ -1 -16.7262 56.5109 7 4 154
1894011S14056 1894 3 SI MM NOT_NAMED 1894-01-13 06:00:00 NR -16.9000 56.6000 main 370 346 __________O___ -1 -16.9000 56.6000 7 5 157
1894011S14056 1894 3 SI MM NOT_NAMED 1894-01-13 09:00:00 NR -17.1594 56.7064 main 335 310 __________P___ -1 -17.1594 56.7064 7 6 159
1894011S14056 1894 3 SI MM NOT_NAMED 1894-01-13 12:00:00 NR -17.4500 56.8273 main 310 273 __________P___ -1 -17.4500 56.8273 7 6 157
1894011S14056 1894 3 SI MM NOT_NAMED 1894-01-13 15:00:00 NR -17.7406 56.9596 main 273 238 __________P___ -1 -17.7406 56.9596 7 6 155
1894011S14056 1894 3 SI MM NOT_NAMED 1894-01-13 18:00:00 NR -18.0000 57.1000 main 238 214 __________O___ -1 -18.0000 57.1000 7 5 148
1894011S14056 1894 3 SI MM NOT_NAMED 1894-01-13 21:00:00 NR -18.1696 57.2350 main 214 201 __________P___ -1 -18.1696 57.2350 7 4 139
1894011S14056 1894 3 SI MM NOT_NAMED 1894-01-14 00:00:00 NR -18.3074 57.3780 main 201 190 __________P___ -1 -18.3074 57.3780 7 4 134
1894011S14056 1894 3 SI MM NOT_NAMED 1894-01-14 03:00:00 NR -18.4415 57.5320 main 190 167 __________P___ -1 -18.4415 57.5320 7 4 134
1894011S14056 1894 3 SI MM NOT_NAMED 1894-01-14 06:00:00 NR -18.6000 57.7000 main 167 145 __________O___ -1 -18.6000 57.7000 7 5 139
1894011S14056 1894 3 SI MM NOT_NAMED 1894-01-14 09:00:00 NR -18.8335 57.8895 main 146 119 __________P___ -1 -18.8335 57.8895 7 6 143
1894011S14056 1894 3 SI MM NOT_NAMED 1894-01-14 12:00:00 NR -19.0926 58.0922 main 119 103 __________P___ -1 -19.0926 58.0922 7 7 143
1894011S14056 1894 3 SI MM NOT_NAMED 1894-01-14 15:00:00 NR -19.3553 58.2989 main 100 99 __________P___ -1 -19.3553 58.2989 7 6 143
1894011S14056 1894 3 SI MM NOT_NAMED 1894-01-14 18:00:00 NR -19.6000 58.5000 main 100 94 __________O___ -1 -19.6000 58.5000 7 5 140
1894011S14056 1894 3 SI MM NOT_NAMED 1894-01-14 21:00:00 NR -19.7679 58.6667 main 109 109 __________P___ -1 -19.7679 58.6667 7 4 136
1894011S14056 1894 3 SI MM NOT_NAMED 1894-01-15 00:00:00 NR -19.9197 58.8286 main 113 113 __________P___ -1 -19.9197 58.8286 7 4 135
1894011S14056 1894 3 SI MM NOT_NAMED 1894-01-15 03:00:00 NR -20.0866 59.0012 main 127 127 __________P___ -1 -20.0866 59.0012 7 5 137
1894011S14056 1894 3 SI MM NOT_NAMED 1894-01-15 06:00:00 NR -20.3000 59.2000 main 145 145 __________O___ -1 -20.3000 59.2000 7 7 141
1894011S14056 1894 3 SI MM NOT_NAMED 1894-01-15 09:00:00 NR -20.6038 59.4420 main 170 170 __________P___ -1 -20.6038 59.4420 7 8 144
1894011S14056 1894 3 SI MM NOT_NAMED 1894-01-15 12:00:00 NR -20.9550 59.7122 main 212 212 __________P___ -1 -20.9550 59.7122 7 9 144
1894011S14056 1894 3 SI MM NOT_NAMED 1894-01-15 15:00:00 NR -21.3287 60.0015 main 254 254 __________P___ -1 -21.3287 60.0015 7 9 144
1894011S14056 1894 3 SI MM NOT_NAMED 1894-01-15 18:00:00 NR -21.7000 60.3000 main 301 301 __________O___ -1 -21.7000 60.3000 7 9 142
1894011S14056 1894 3 SI MM NOT_NAMED 1894-01-15 21:00:00 NR -22.0361 60.5931 main 344 344 __________P___ -1 -22.0361 60.5931 7 9 140
1894011S14056 1894 3 SI MM NOT_NAMED 1894-01-16 00:00:00 NR -22.3648 60.8929 main 393 393 __________P___ -1 -22.3648 60.8929 7 9 139
1894011S14056 1894 3 SI MM NOT_NAMED 1894-01-16 03:00:00 NR -22.6861 61.1963 main 437 437 __________P___ -1 -22.6861 61.1963 7 8 139
1894011S14056 1894 3 SI MM NOT_NAMED 1894-01-16 06:00:00 NR -23.0000 61.5000 main 481 481 __________O___ -1 -23.0000 61.5000 7 8 138
1894011S14056 1894 3 SI MM NOT_NAMED 1894-01-16 09:00:00 NR -23.3111 61.8044 main 526 526 __________P___ -1 -23.3111 61.8044 7 8 138
1894011S14056 1894 3 SI MM NOT_NAMED 1894-01-16 12:00:00 NR -23.6148 62.1079 main 570 570 __________P___ -1 -23.6148 62.1079 7 8 137
1894011S14056 1894 3 SI MM NOT_NAMED 1894-01-16 15:00:00 NR -23.9111 62.4075 main 615 615 __________P___ -1 -23.9111 62.4075 7 8 137
1894011S14056 1894 3 SI MM NOT_NAMED 1894-01-16 18:00:00 NR -24.2000 62.7000 main 659 659 __________O___ -1 -24.2000 62.7000 7 8 137
1894011S14056 1894 3 SI MM NOT_NAMED 1894-01-16 21:00:00 NR -24.4817 62.9833 main 704 704 __________P___ -1 -24.4817 62.9833 7 8 138
1894011S14056 1894 3 SI MM NOT_NAMED 1894-01-17 00:00:00 NR -24.7578 63.2591 main 748 748 __________P___ -1 -24.7578 63.2591 7 7 138
1894011S14056 1894 3 SI MM NOT_NAMED 1894-01-17 03:00:00 NR -25.0300 63.5304 main 778 778 __________P___ -1 -25.0300 63.5304 7 7 138
1894011S14056 1894 3 SI MM NOT_NAMED 1894-01-17 06:00:00 NR -25.3000 63.8000 main 823 __________O___ -1 -25.3000 63.8000 7 7 138

IBTrACS Databaseについて

本データベースは、米国NOAAが公開する1842年以降の世界の熱帯低気圧のベストトラックデータアーカイブInternational Best Track Archive for Climate Stewardship (IBTrACS)を、ウェブで閲覧しやすい形式に変換したものです。

最終更新日:2021-12-01